createdAt,value
2017-12-03T00:00:57.748Z,102103.14
2017-12-03T00:03:25.467Z,102100.89
2017-12-03T00:05:53.162Z,102096.27
2017-12-03T00:08:20.906Z,102100.78
2017-12-03T00:10:48.589Z,102098.56
2017-12-03T00:13:16.318Z,102099.41
2017-12-03T00:15:43.990Z,102101.68
2017-12-03T00:18:11.707Z,102094.17
2017-12-03T00:20:39.431Z,102093.19
2017-12-03T00:23:07.138Z,102089.97
2017-12-03T00:25:34.858Z,102086.95
2017-12-03T00:28:02.584Z,102081.52
2017-12-03T00:30:30.265Z,102084.21
2017-12-03T00:32:58.017Z,102086.01
2017-12-03T00:35:25.726Z,102085.04
2017-12-03T00:37:53.409Z,102077.54
2017-12-03T00:40:21.142Z,102078.34
2017-12-03T00:42:48.814Z,102081.66
2017-12-03T00:45:16.545Z,102076.94
2017-12-03T00:47:44.219Z,102071.30
2017-12-03T00:50:11.946Z,102068.58
2017-12-03T00:52:39.632Z,102064.81
2017-12-03T00:55:07.470Z,102061.89
2017-12-03T00:57:35.142Z,102063.22
2017-12-03T01:00:02.829Z,102062.48
2017-12-03T01:02:30.542Z,102058.13
2017-12-03T01:04:58.292Z,102059.70
2017-12-03T01:07:26.042Z,102049.39
2017-12-03T01:09:53.735Z,102050.63
2017-12-03T01:12:21.450Z,102055.16
2017-12-03T01:14:49.138Z,102053.34
2017-12-03T01:17:16.931Z,102048.16
2017-12-03T01:19:44.635Z,102052.02
2017-12-03T01:22:12.339Z,102052.44
2017-12-03T01:24:40.007Z,102051.95
2017-12-03T01:27:07.755Z,102051.05
2017-12-03T01:29:35.440Z,102051.63
2017-12-03T01:32:03.179Z,102046.04
2017-12-03T01:34:30.846Z,102048.08
2017-12-03T01:36:58.525Z,102044.86
2017-12-03T01:39:26.237Z,102046.28
2017-12-03T01:41:53.898Z,102047.37
2017-12-03T01:44:21.610Z,102052.31
2017-12-03T01:46:49.299Z,102048.43
2017-12-03T01:49:17.010Z,102044.23
2017-12-03T01:51:44.680Z,102036.47
2017-12-03T01:54:12.391Z,102030.29
2017-12-03T01:56:40.051Z,102034.30
2017-12-03T01:59:07.758Z,102038.13
2017-12-03T02:01:35.439Z,102036.13
2017-12-03T02:04:03.181Z,102035.56
2017-12-03T02:06:30.842Z,102045.80
2017-12-03T02:08:58.489Z,102043.40
2017-12-03T02:11:26.242Z,102043.48
2017-12-03T02:13:53.919Z,102045.70
2017-12-03T02:16:21.620Z,102043.31
2017-12-03T02:18:49.313Z,102048.68
2017-12-03T02:21:17.018Z,102041.82
2017-12-03T02:23:44.703Z,102037.19
2017-12-03T02:26:12.391Z,102037.69
2017-12-03T02:28:40.072Z,102028.88
2017-12-03T02:31:07.787Z,102016.67
2017-12-03T02:33:35.462Z,102011.95
2017-12-03T02:36:03.218Z,102008.77
2017-12-03T02:38:30.931Z,102004.89
2017-12-03T02:40:58.592Z,102000.09
2017-12-03T02:43:26.310Z,102004.81
2017-12-03T02:45:53.978Z,102004.88
2017-12-03T02:48:21.678Z,101997.59
2017-12-03T02:50:49.355Z,102006.61
2017-12-03T02:53:17.071Z,102003.80
2017-12-03T02:55:44.734Z,101999.27
2017-12-03T02:58:12.499Z,102003.31
2017-12-03T03:00:40.177Z,101999.09
2017-12-03T03:03:07.851Z,101999.84
2017-12-03T03:05:35.566Z,102000.91
2017-12-03T03:08:03.238Z,101993.53
2017-12-03T03:10:31.029Z,101992.39
2017-12-03T03:12:58.690Z,101992.81
2017-12-03T03:15:26.394Z,101994.11
2017-12-03T03:17:54.090Z,101997.23
2017-12-03T03:20:21.830Z,101991.20
2017-12-03T03:22:49.508Z,101991.82
2017-12-03T03:25:17.222Z,101983.80
2017-12-03T03:27:44.887Z,101981.22
2017-12-03T03:30:12.563Z,101980.16
2017-12-03T03:32:40.318Z,101977.69
2017-12-03T03:35:07.979Z,101975.14
2017-12-03T03:37:35.674Z,101978.00
2017-12-03T03:40:03.337Z,101973.13
2017-12-03T03:42:31.053Z,101971.38
2017-12-03T03:44:58.727Z,101977.19
2017-12-03T03:47:26.494Z,101972.91
2017-12-03T03:49:54.158Z,101965.95
2017-12-03T03:52:21.824Z,101967.09
2017-12-03T03:54:49.538Z,101967.44
2017-12-03T03:57:17.199Z,101970.23
2017-12-03T03:59:44.932Z,101971.69
2017-12-03T04:02:12.604Z,101965.77
2017-12-03T04:04:40.302Z,101965.41
2017-12-03T04:07:07.972Z,101957.41
2017-12-03T04:09:35.762Z,101964.65
2017-12-03T04:12:04.295Z,101970.17
2017-12-03T04:14:31.966Z,101976.50
2017-12-03T04:16:59.670Z,101982.23
2017-12-03T04:19:27.315Z,101976.20
2017-12-03T04:21:55.003Z,101976.20
2017-12-03T04:24:22.679Z,101965.75
2017-12-03T04:26:50.382Z,101970.99
2017-12-03T04:29:18.061Z,101976.25
2017-12-03T04:31:45.766Z,101981.45
2017-12-03T04:34:13.542Z,101972.92
2017-12-03T04:36:41.276Z,101975.81
2017-12-03T04:39:08.935Z,101976.23
2017-12-03T04:41:36.586Z,101973.09
2017-12-03T04:44:04.294Z,101968.96
2017-12-03T04:46:31.954Z,101970.45
2017-12-03T04:48:59.663Z,101970.48
2017-12-03T04:51:27.391Z,101971.56
2017-12-03T04:53:55.089Z,101969.52
2017-12-03T04:56:22.833Z,101967.73
2017-12-03T04:58:50.530Z,101972.27
2017-12-03T05:01:18.192Z,101965.17
2017-12-03T05:03:45.894Z,101963.11
2017-12-03T05:06:13.559Z,101960.16
2017-12-03T05:08:41.269Z,101967.40
2017-12-03T05:11:08.946Z,101965.69
2017-12-03T05:13:36.642Z,101969.38
2017-12-03T05:16:04.322Z,101970.44
2017-12-03T05:18:32.007Z,101968.35
2017-12-03T05:20:59.721Z,101963.57
2017-12-03T05:23:27.372Z,101956.99
2017-12-03T05:25:55.067Z,101957.48
2017-12-03T05:28:22.733Z,101962.07
2017-12-03T05:30:50.551Z,101955.55
2017-12-03T05:33:18.186Z,101949.12
2017-12-03T05:35:45.904Z,101944.11
2017-12-03T05:38:13.569Z,101940.84
2017-12-03T05:40:41.261Z,101945.28
2017-12-03T05:43:08.906Z,101948.78
2017-12-03T05:45:36.608Z,101940.23
2017-12-03T05:48:04.266Z,101936.52
2017-12-03T05:50:31.964Z,101943.03
2017-12-03T05:52:59.618Z,101938.16
2017-12-03T05:55:27.342Z,101936.69
2017-12-03T05:57:55.034Z,101930.73
2017-12-03T06:00:22.714Z,101930.88
2017-12-03T06:02:50.443Z,101930.05
2017-12-03T06:05:18.098Z,101926.11
2017-12-03T06:07:45.791Z,101929.19
2017-12-03T06:10:13.463Z,101929.28
2017-12-03T06:12:41.167Z,101920.55
2017-12-03T06:15:08.839Z,101928.92
2017-12-03T06:17:36.626Z,101924.51
2017-12-03T06:20:04.297Z,101927.89
2017-12-03T06:22:32.042Z,101921.45
2017-12-03T06:24:59.710Z,101924.98
2017-12-03T06:27:27.391Z,101927.08
2017-12-03T06:29:55.046Z,101932.03
2017-12-03T06:32:22.761Z,101935.22
2017-12-03T06:34:50.483Z,101934.22
2017-12-03T06:37:18.139Z,101938.84
2017-12-03T06:39:45.869Z,101936.62
2017-12-03T06:42:13.539Z,101937.22
2017-12-03T06:44:41.238Z,101934.06
2017-12-03T06:47:08.900Z,101938.67
2017-12-03T06:49:36.610Z,101934.82
2017-12-03T06:52:04.302Z,101937.52
2017-12-03T06:54:32.001Z,101940.71
2017-12-03T06:56:59.642Z,101946.05
2017-12-03T06:59:27.350Z,101944.12
2017-12-03T07:01:55.028Z,101952.56
2017-12-03T07:04:22.746Z,101954.69
2017-12-03T07:06:50.422Z,101952.48
2017-12-03T07:09:18.095Z,101953.82
2017-12-03T07:11:45.802Z,101954.08
2017-12-03T07:14:13.459Z,101960.05
2017-12-03T07:16:41.175Z,101963.22
2017-12-03T07:19:08.846Z,101961.98
2017-12-03T07:21:36.547Z,101966.37
2017-12-03T07:24:04.256Z,101965.94
2017-12-03T07:26:31.969Z,101968.10
2017-12-03T07:28:59.627Z,101963.73
2017-12-03T07:31:27.342Z,101953.95
2017-12-03T07:33:55.040Z,101950.08
2017-12-03T07:36:22.735Z,101952.61
2017-12-03T07:38:50.383Z,101947.24
2017-12-03T07:41:18.094Z,101943.72
2017-12-03T07:43:45.744Z,101943.50
2017-12-03T07:46:13.413Z,101945.26
2017-12-03T07:48:41.146Z,101936.38
2017-12-03T07:51:08.806Z,101942.13
2017-12-03T07:53:36.511Z,101944.12
2017-12-03T07:56:04.178Z,101944.05
2017-12-03T07:58:31.876Z,101947.25
2017-12-03T08:00:59.542Z,101939.41
2017-12-03T08:03:27.239Z,101940.36
2017-12-03T08:05:54.986Z,101947.69
2017-12-03T08:08:22.712Z,101946.70
2017-12-03T08:10:50.432Z,101938.09
2017-12-03T08:13:18.128Z,101941.58
2017-12-03T08:15:45.851Z,101935.81
2017-12-03T08:18:13.520Z,101939.50
2017-12-03T08:20:41.207Z,101942.22
2017-12-03T08:23:08.966Z,101941.73
2017-12-03T08:25:36.691Z,101942.20
2017-12-03T08:28:04.360Z,101939.23
2017-12-03T08:30:32.084Z,101944.52
2017-12-03T08:32:59.747Z,101946.54
2017-12-03T08:35:27.487Z,101939.88
2017-12-03T08:37:55.164Z,101946.14
2017-12-03T08:40:22.827Z,101947.39
2017-12-03T08:42:50.550Z,101945.41
2017-12-03T08:45:18.214Z,101944.01
2017-12-03T08:47:45.930Z,101950.78
2017-12-03T08:50:13.607Z,101946.91
2017-12-03T08:52:41.303Z,101946.40
2017-12-03T08:55:08.963Z,101945.83
2017-12-03T08:57:36.666Z,101944.63
2017-12-03T09:00:04.336Z,101942.14
2017-12-03T09:02:32.174Z,101945.80
2017-12-03T09:04:59.853Z,101939.52
2017-12-03T09:07:27.575Z,101941.34
2017-12-03T09:09:55.267Z,101944.30
2017-12-03T09:12:22.970Z,101946.01
2017-12-03T09:14:50.643Z,101941.24
2017-12-03T09:17:18.327Z,101945.87
2017-12-03T09:19:46.047Z,101948.48
2017-12-03T09:22:13.750Z,101947.35
2017-12-03T09:24:41.454Z,101953.62
2017-12-03T09:27:09.145Z,101952.06
2017-12-03T09:29:36.867Z,101945.91
2017-12-03T09:32:04.555Z,101949.20
2017-12-03T09:34:32.240Z,101947.97
2017-12-03T09:36:59.966Z,101946.16
2017-12-03T09:39:27.623Z,101948.72
2017-12-03T09:41:55.375Z,101954.68
2017-12-03T09:44:23.059Z,101947.73
2017-12-03T09:46:50.779Z,101951.86
2017-12-03T09:49:18.467Z,101942.98
2017-12-03T09:51:46.276Z,101944.03
2017-12-03T09:54:13.937Z,101947.44
2017-12-03T09:56:41.641Z,101948.98
2017-12-03T09:59:09.326Z,101943.59
2017-12-03T10:01:37.054Z,101946.08
2017-12-03T10:04:04.721Z,101941.64
2017-12-03T10:06:32.428Z,101945.38
2017-12-03T10:09:00.104Z,101943.55
2017-12-03T10:11:27.830Z,101947.86
2017-12-03T10:13:55.547Z,101946.77
2017-12-03T10:16:23.250Z,101949.30
2017-12-03T10:18:50.954Z,101946.17
2017-12-03T10:21:18.718Z,101944.91
2017-12-03T10:23:46.434Z,101945.00
2017-12-03T10:26:14.107Z,101946.28
2017-12-03T10:28:41.829Z,101941.16
2017-12-03T10:31:09.547Z,101941.44
2017-12-03T10:33:37.313Z,101943.66
2017-12-03T10:36:05.010Z,101933.02
2017-12-03T10:38:32.704Z,101940.12
2017-12-03T10:41:00.436Z,101932.11
2017-12-03T10:43:28.103Z,101925.01
2017-12-03T10:45:55.824Z,101919.05
2017-12-03T10:48:23.520Z,101913.92
2017-12-03T10:50:51.241Z,101919.20
2017-12-03T10:53:18.934Z,101911.13
2017-12-03T10:55:46.730Z,101911.94
2017-12-03T10:58:14.418Z,101907.94
2017-12-03T11:00:42.143Z,101904.58
2017-12-03T11:03:09.848Z,101902.75
2017-12-03T11:05:37.551Z,101899.78
2017-12-03T11:08:05.287Z,101895.16
2017-12-03T11:10:32.975Z,101896.30
2017-12-03T11:13:00.728Z,101894.50
2017-12-03T11:15:28.404Z,101892.28
2017-12-03T11:17:56.115Z,101890.63
2017-12-03T11:20:23.779Z,101881.75
2017-12-03T11:22:51.535Z,101884.63
2017-12-03T11:25:19.211Z,101888.92
2017-12-03T11:27:46.946Z,101887.36
2017-12-03T11:30:14.683Z,101883.97
2017-12-03T11:32:42.359Z,101880.09
2017-12-03T11:35:10.088Z,101873.53
2017-12-03T11:37:37.792Z,101869.94
2017-12-03T11:40:05.517Z,101866.04
2017-12-03T11:42:33.274Z,101863.34
2017-12-03T11:45:00.979Z,101864.48
2017-12-03T11:47:28.689Z,101870.13
2017-12-03T11:49:56.364Z,101863.61
2017-12-03T11:52:24.079Z,101863.64
2017-12-03T11:54:51.784Z,101863.28
2017-12-03T11:57:19.571Z,101869.23
2017-12-03T11:59:47.273Z,101867.45
2017-12-03T12:02:14.998Z,101864.33
2017-12-03T12:04:42.679Z,101857.46
2017-12-03T12:07:10.414Z,101857.25
2017-12-03T12:09:38.126Z,101855.62
2017-12-03T12:12:05.831Z,101855.38
2017-12-03T12:14:33.567Z,101852.29
2017-12-03T12:17:01.261Z,101851.40
2017-12-03T12:19:28.976Z,101854.70
2017-12-03T12:21:56.677Z,101851.49
2017-12-03T12:24:24.406Z,101845.41
2017-12-03T12:26:52.108Z,101845.07
2017-12-03T12:29:19.863Z,101846.57
2017-12-03T12:31:47.579Z,101849.75
2017-12-03T12:34:15.263Z,101850.27
2017-12-03T12:36:43.032Z,101850.86
2017-12-03T12:39:10.757Z,101846.63
2017-12-03T12:41:38.484Z,101842.25
2017-12-03T12:44:06.232Z,101833.19
2017-12-03T12:46:33.965Z,101838.98
2017-12-03T12:49:01.648Z,101836.03
2017-12-03T12:51:29.427Z,101834.48
2017-12-03T12:53:57.106Z,101828.73
2017-12-03T12:56:24.848Z,101827.93
2017-12-03T12:58:52.527Z,101830.33
2017-12-03T13:01:20.251Z,101820.34
2017-12-03T13:03:47.954Z,101821.84
2017-12-03T13:06:16.002Z,101813.70
2017-12-03T13:08:43.750Z,101808.71
2017-12-03T13:11:11.444Z,101810.09
2017-12-03T13:13:39.182Z,101803.64
2017-12-03T13:16:06.867Z,101802.98
2017-12-03T13:18:34.657Z,101802.18
2017-12-03T13:21:02.359Z,101806.00
2017-12-03T13:23:30.066Z,101806.14
2017-12-03T13:25:57.765Z,101810.38
2017-12-03T13:28:25.500Z,101810.62
2017-12-03T13:30:53.164Z,101816.70
2017-12-03T13:33:20.969Z,101812.66
2017-12-03T13:35:48.718Z,101808.48
2017-12-03T13:38:16.399Z,101801.80
2017-12-03T13:40:44.258Z,101805.22
2017-12-03T13:43:11.933Z,101810.03
2017-12-03T13:45:39.691Z,101807.48
2017-12-03T13:48:07.404Z,101810.50
2017-12-03T13:50:35.158Z,101809.98
2017-12-03T13:53:02.851Z,101806.44
2017-12-03T13:55:30.597Z,101808.46
2017-12-03T13:57:58.301Z,101807.62
2017-12-03T14:00:26.058Z,101803.23
2017-12-03T14:02:53.723Z,101804.88
2017-12-03T14:05:21.434Z,101790.69
2017-12-03T14:07:49.125Z,101794.64
2017-12-03T14:10:17.362Z,101800.14
2017-12-03T14:12:44.963Z,101793.79
2017-12-03T14:15:12.631Z,101797.89
2017-12-03T14:17:40.215Z,101806.39
2017-12-03T14:20:07.887Z,101805.70
2017-12-03T14:22:35.543Z,101806.07
2017-12-03T14:25:03.217Z,101809.96
2017-12-03T14:27:30.866Z,101806.98
2017-12-03T14:29:58.494Z,101804.58
2017-12-03T14:32:27.618Z,101803.40
2017-12-03T14:34:55.300Z,101809.06
2017-12-03T14:37:22.968Z,101812.55
2017-12-03T14:39:50.675Z,101817.48
2017-12-03T14:42:18.305Z,101810.17
2017-12-03T14:44:46.056Z,101806.73
2017-12-03T14:47:13.652Z,101811.09
2017-12-03T14:49:41.287Z,101816.30
2017-12-03T14:52:08.920Z,101816.45
2017-12-03T14:54:36.603Z,101822.41
2017-12-03T14:57:04.203Z,101820.52
2017-12-03T14:59:31.842Z,101814.17
2017-12-03T15:01:59.447Z,101813.55
2017-12-03T15:04:27.117Z,101821.38
2017-12-03T15:06:54.799Z,101822.89
2017-12-03T15:09:22.467Z,101826.84
2017-12-03T15:11:50.070Z,101829.66
2017-12-03T15:14:17.723Z,101824.80
2017-12-03T15:16:45.452Z,101827.59
2017-12-03T15:19:13.174Z,101832.89
2017-12-03T15:21:40.790Z,101834.60
2017-12-03T15:24:08.426Z,101834.72
2017-12-03T15:26:36.018Z,101838.36
2017-12-03T15:29:03.631Z,101831.92
2017-12-03T15:31:31.273Z,101833.34
2017-12-03T15:33:59.039Z,101833.46
2017-12-03T15:36:26.643Z,101831.75
2017-12-03T15:38:54.366Z,101836.30
2017-12-03T15:41:21.961Z,101836.05
2017-12-03T15:43:49.710Z,101837.52
2017-12-03T15:46:17.391Z,101843.61
2017-12-03T15:48:45.146Z,101838.41
2017-12-03T15:51:12.830Z,101847.58
2017-12-03T15:53:40.535Z,101852.55
2017-12-03T15:56:08.237Z,101853.16
2017-12-03T15:58:35.997Z,101852.83
2017-12-03T16:01:03.647Z,101859.02
2017-12-03T16:03:31.274Z,101855.09
2017-12-03T16:05:58.883Z,101856.23
2017-12-03T16:08:26.604Z,101854.91
2017-12-03T16:10:54.303Z,101854.29
2017-12-03T16:13:22.078Z,101858.74
2017-12-03T16:15:49.830Z,101864.69
2017-12-03T16:18:17.618Z,101858.88
2017-12-03T16:20:45.223Z,101863.22
2017-12-03T16:23:13.029Z,101860.44
2017-12-03T16:25:40.765Z,101863.65
2017-12-03T16:28:08.461Z,101860.02
2017-12-03T16:30:36.146Z,101866.59
2017-12-03T16:33:03.901Z,101864.69
2017-12-03T16:35:31.591Z,101867.80
2017-12-03T16:37:59.318Z,101860.91
2017-12-03T16:40:27.055Z,101867.00
2017-12-03T16:42:54.691Z,101864.50
2017-12-03T16:45:22.307Z,101867.86
2017-12-03T16:47:50.051Z,101866.15
2017-12-03T16:50:17.654Z,101866.28
2017-12-03T16:52:45.265Z,101860.99
2017-12-03T16:55:13.146Z,101865.67
2017-12-03T16:57:40.829Z,101870.50
2017-12-03T17:00:08.426Z,101872.43
2017-12-03T17:02:36.168Z,101867.00
2017-12-03T17:05:03.857Z,101869.78
2017-12-03T17:07:31.598Z,101867.37
2017-12-03T17:09:59.271Z,101873.09
2017-12-03T17:12:27.024Z,101873.28
2017-12-03T17:14:54.697Z,101875.93
2017-12-03T17:17:22.331Z,101878.48
2017-12-03T17:19:49.926Z,101880.84
2017-12-03T17:22:17.843Z,101884.80
2017-12-03T17:24:45.507Z,101885.61
2017-12-03T17:27:13.284Z,101880.65
2017-12-03T17:29:40.888Z,101885.66
2017-12-03T17:32:08.538Z,101885.70
2017-12-03T17:34:36.192Z,101881.55
2017-12-03T17:37:03.960Z,101881.78
2017-12-03T17:39:31.643Z,101878.84
2017-12-03T17:41:59.308Z,101884.42
2017-12-03T17:44:27.186Z,101889.02
2017-12-03T17:46:54.887Z,101889.02
2017-12-03T17:49:22.558Z,101887.02
2017-12-03T17:51:50.174Z,101886.50
2017-12-03T17:54:17.863Z,101886.97
2017-12-03T17:56:45.604Z,101885.33
2017-12-03T17:59:13.320Z,101893.88
2017-12-03T18:01:41.090Z,101898.75
2017-12-03T18:04:08.827Z,101900.77
2017-12-03T18:06:36.506Z,101907.39
2017-12-03T18:09:04.183Z,101908.28
2017-12-03T18:11:31.857Z,101901.56
2017-12-03T18:13:59.474Z,101900.70
2017-12-03T18:16:27.223Z,101899.25
2017-12-03T18:18:54.956Z,101907.05
2017-12-03T18:21:22.871Z,101906.44
2017-12-03T18:23:50.556Z,101911.50
2017-12-03T18:26:18.177Z,101916.55
2017-12-03T18:28:45.829Z,101912.06
2017-12-03T18:31:13.434Z,101918.91
2017-12-03T18:33:41.153Z,101919.81
2017-12-03T18:36:08.814Z,101922.17
2017-12-03T18:38:36.531Z,101917.20
2017-12-03T18:41:04.218Z,101923.92
2017-12-03T18:43:32.155Z,101928.03
2017-12-03T18:45:59.877Z,101925.05
2017-12-03T18:48:27.566Z,101928.27
2017-12-03T18:50:55.196Z,101926.52
2017-12-03T18:53:23.006Z,101940.03
2017-12-03T18:55:50.735Z,101935.83
2017-12-03T18:58:18.546Z,101932.19
2017-12-03T19:00:46.211Z,101937.06
2017-12-03T19:03:13.859Z,101946.98
2017-12-03T19:05:41.558Z,101949.20
2017-12-03T19:08:09.190Z,101954.92
2017-12-03T19:10:36.915Z,101953.59
2017-12-03T19:13:04.743Z,101954.22
2017-12-03T19:15:32.408Z,101950.81
2017-12-03T19:18:00.055Z,101932.89
2017-12-03T19:20:27.707Z,101941.84
2017-12-03T19:22:55.444Z,101949.02
2017-12-03T19:25:23.079Z,101944.19
2017-12-03T19:27:50.771Z,101944.23
2017-12-03T19:30:18.557Z,101948.45
2017-12-03T19:32:47.374Z,101954.63
2017-12-03T19:35:15.800Z,101956.34
2017-12-03T19:37:43.546Z,101962.81
2017-12-03T19:40:11.235Z,101955.48
2017-12-03T19:42:39.038Z,101956.81
2017-12-03T19:45:07.001Z,101962.88
2017-12-03T19:47:34.732Z,101966.59
2017-12-03T19:50:02.544Z,101967.12
2017-12-03T19:52:30.322Z,101962.63
2017-12-03T19:54:58.143Z,101955.34
2017-12-03T19:57:25.900Z,101959.27
2017-12-03T19:59:53.512Z,101950.94
2017-12-03T20:02:21.265Z,101942.57
2017-12-03T20:04:48.923Z,101941.05
2017-12-03T20:07:16.668Z,101941.34
2017-12-03T20:09:44.384Z,101943.66
2017-12-03T20:12:12.178Z,101948.06
2017-12-03T20:14:39.781Z,101956.88
2017-12-03T20:17:07.426Z,101962.94
2017-12-03T20:19:35.190Z,101957.66
2017-12-03T20:22:02.891Z,101957.39
2017-12-03T20:24:30.578Z,101960.57
2017-12-03T20:26:58.229Z,101960.11
2017-12-03T20:29:25.966Z,101954.19
2017-12-03T20:31:53.614Z,101957.99
2017-12-03T20:34:21.247Z,101953.72
2017-12-03T20:36:48.900Z,101951.09
2017-12-03T20:39:16.531Z,101966.45
2017-12-03T20:41:44.173Z,101966.95
2017-12-03T20:44:11.843Z,101973.87
2017-12-03T20:46:39.544Z,101970.59
2017-12-03T20:49:07.302Z,101977.47
2017-12-03T20:51:34.984Z,101966.55
2017-12-03T20:54:02.741Z,101976.22
2017-12-03T20:56:30.391Z,101978.05
2017-12-03T20:58:58.013Z,101984.20
2017-12-03T21:01:25.838Z,101982.84
2017-12-03T21:03:54.057Z,101981.10
2017-12-03T21:06:21.808Z,101988.38
2017-12-03T21:08:49.468Z,101990.91
2017-12-03T21:11:17.093Z,101992.63
2017-12-03T21:13:44.715Z,101993.09
2017-12-03T21:16:12.361Z,101996.62
2017-12-03T21:18:40.021Z,101994.00
2017-12-03T21:21:07.805Z,102002.50
2017-12-03T21:23:35.436Z,102003.58
2017-12-03T21:26:03.078Z,102007.03
2017-12-03T21:28:30.674Z,102013.83
2017-12-03T21:30:58.332Z,102014.73
2017-12-03T21:33:25.938Z,102009.42
2017-12-03T21:35:53.588Z,102010.98
2017-12-03T21:38:21.229Z,102012.85
2017-12-03T21:40:49.062Z,102010.78
2017-12-03T21:43:16.728Z,102014.62
2017-12-03T21:45:44.340Z,102019.09
2017-12-03T21:48:11.976Z,102012.33
2017-12-03T21:50:39.614Z,102017.82
2017-12-03T21:53:07.282Z,102012.47
2017-12-03T21:55:35.080Z,102026.08
2017-12-03T21:58:02.788Z,102026.19
2017-12-03T22:00:30.453Z,102033.09
2017-12-03T22:02:58.190Z,102027.73
2017-12-03T22:05:25.882Z,102030.47
2017-12-03T22:07:53.490Z,102032.31
2017-12-03T22:10:21.139Z,102039.10
2017-12-03T22:12:48.795Z,102037.42
2017-12-03T22:15:16.430Z,102046.23
2017-12-03T22:17:44.060Z,102041.19
2017-12-03T22:20:11.747Z,102043.80
2017-12-03T22:22:39.355Z,102048.77
2017-12-03T22:25:07.007Z,102050.09
2017-12-03T22:27:34.694Z,102047.45
2017-12-03T22:30:02.329Z,102052.80
2017-12-03T22:32:29.979Z,102050.77
2017-12-03T22:34:57.614Z,102044.33
2017-12-03T22:37:25.298Z,102044.09
2017-12-03T22:39:53.574Z,102052.20
2017-12-03T22:42:21.309Z,102061.80
2017-12-03T22:44:48.989Z,102061.56
2017-12-03T22:47:16.538Z,102064.31
2017-12-03T22:49:44.168Z,102065.93
2017-12-03T22:52:11.787Z,102068.67
2017-12-03T22:54:39.423Z,102055.27
2017-12-03T22:57:07.033Z,102052.72
2017-12-03T22:59:34.666Z,102044.96
2017-12-03T23:02:02.321Z,102041.22
2017-12-03T23:04:30.771Z,102042.87
2017-12-03T23:06:58.379Z,102043.38
2017-12-03T23:09:26.028Z,102046.03
2017-12-03T23:11:53.628Z,102041.64
2017-12-03T23:14:21.256Z,102048.68
2017-12-03T23:16:48.872Z,102048.22
2017-12-03T23:19:16.539Z,102052.01
2017-12-03T23:21:44.206Z,102056.17
2017-12-03T23:24:11.829Z,102055.42
2017-12-03T23:26:39.488Z,102053.62
2017-12-03T23:29:07.126Z,102053.94
2017-12-03T23:31:34.729Z,102057.81
2017-12-03T23:34:02.410Z,102051.09
2017-12-03T23:36:30.058Z,102055.06
2017-12-03T23:38:57.675Z,102049.34
2017-12-03T23:41:25.295Z,102049.86
2017-12-03T23:43:52.921Z,102050.16
2017-12-03T23:46:20.515Z,102052.09
2017-12-03T23:48:48.159Z,102053.31
2017-12-03T23:51:15.798Z,102059.17
2017-12-03T23:53:43.418Z,102067.13
2017-12-03T23:56:11.087Z,102068.75
2017-12-03T23:58:38.692Z,102072.86
